sensor_id;sensor_type;location;lat;lon;timestamp;temperature;humidity
9329;DHT22;4703;48.748;19.142;2023-04-06T00:01:03;2.90;50.70
9329;DHT22;4703;48.748;19.142;2023-04-06T00:03:31;3.30;51.30
9329;DHT22;4703;48.748;19.142;2023-04-06T00:05:58;3.20;51.10
9329;DHT22;4703;48.748;19.142;2023-04-06T00:08:26;2.30;49.40
9329;DHT22;4703;48.748;19.142;2023-04-06T00:10:53;3.70;49.90
9329;DHT22;4703;48.748;19.142;2023-04-06T00:13:21;2.70;49.20
9329;DHT22;4703;48.748;19.142;2023-04-06T00:15:48;3.30;49.90
9329;DHT22;4703;48.748;19.142;2023-04-06T00:18:15;3.70;49.90
9329;DHT22;4703;48.748;19.142;2023-04-06T00:20:42;2.40;48.80
9329;DHT22;4703;48.748;19.142;2023-04-06T00:23:09;3.30;49.50
9329;DHT22;4703;48.748;19.142;2023-04-06T00:25:36;3.60;49.30
9329;DHT22;4703;48.748;19.142;2023-04-06T00:28:03;3.30;48.90
9329;DHT22;4703;48.748;19.142;2023-04-06T00:30:30;2.20;48.00
9329;DHT22;4703;48.748;19.142;2023-04-06T00:32:57;4.40;49.40
9329;DHT22;4703;48.748;19.142;2023-04-06T00:35:24;3.60;48.70
9329;DHT22;4703;48.748;19.142;2023-04-06T00:37:51;3.90;48.80
9329;DHT22;4703;48.748;19.142;2023-04-06T00:40:18;2.30;47.40
9329;DHT22;4703;48.748;19.142;2023-04-06T00:42:45;2.20;47.50
9329;DHT22;4703;48.748;19.142;2023-04-06T00:45:12;4.20;48.80
9329;DHT22;4703;48.748;19.142;2023-04-06T00:47:39;2.30;47.50
9329;DHT22;4703;48.748;19.142;2023-04-06T00:50:06;3.00;47.90
9329;DHT22;4703;48.748;19.142;2023-04-06T00:52:34;2.30;47.50
9329;DHT22;4703;48.748;19.142;2023-04-06T00:55:03;3.50;48.40
9329;DHT22;4703;48.748;19.142;2023-04-06T00:57:31;2.20;47.40
9329;DHT22;4703;48.748;19.142;2023-04-06T00:59:58;3.80;48.80
9329;DHT22;4703;48.748;19.142;2023-04-06T01:02:25;3.50;48.80
9329;DHT22;4703;48.748;19.142;2023-04-06T01:04:53;3.70;49.00
9329;DHT22;4703;48.748;19.142;2023-04-06T01:07:21;2.40;48.00
9329;DHT22;4703;48.748;19.142;2023-04-06T01:09:48;2.60;48.40
9329;DHT22;4703;48.748;19.142;2023-04-06T01:12:15;3.90;49.50
9329;DHT22;4703;48.748;19.142;2023-04-06T01:14:42;3.70;49.80
9329;DHT22;4703;48.748;19.142;2023-04-06T01:17:09;3.30;49.80
9329;DHT22;4703;48.748;19.142;2023-04-06T01:19:36;3.30;50.20
9329;DHT22;4703;48.748;19.142;2023-04-06T01:22:03;2.30;49.90
9329;DHT22;4703;48.748;19.142;2023-04-06T01:24:31;3.40;50.80
9329;DHT22;4703;48.748;19.142;2023-04-06T01:26:58;3.20;50.80
9329;DHT22;4703;48.748;19.142;2023-04-06T01:29:27;2.90;50.30
9329;DHT22;4703;48.748;19.142;2023-04-06T01:31:54;2.00;50.00
9329;DHT22;4703;48.748;19.142;2023-04-06T01:34:21;2.10;50.40
9329;DHT22;4703;48.748;19.142;2023-04-06T01:36:48;2.20;50.70
9329;DHT22;4703;48.748;19.142;2023-04-06T01:39:15;1.80;50.60
9329;DHT22;4703;48.748;19.142;2023-04-06T01:41:42;4.00;52.00
9329;DHT22;4703;48.748;19.142;2023-04-06T01:44:09;4.70;52.30
9329;DHT22;4703;48.748;19.142;2023-04-06T01:46:36;2.50;51.00
9329;DHT22;4703;48.748;19.142;2023-04-06T01:49:03;2.40;51.20
9329;DHT22;4703;48.748;19.142;2023-04-06T01:51:30;1.70;50.90
9329;DHT22;4703;48.748;19.142;2023-04-06T01:53:57;1.80;51.30
9329;DHT22;4703;48.748;19.142;2023-04-06T01:56:24;2.80;52.80
9329;DHT22;4703;48.748;19.142;2023-04-06T01:58:51;2.10;52.50
9329;DHT22;4703;48.748;19.142;2023-04-06T02:01:18;1.70;52.50
9329;DHT22;4703;48.748;19.142;2023-04-06T02:03:46;2.00;53.30
9329;DHT22;4703;48.748;19.142;2023-04-06T02:06:13;3.90;55.00
9329;DHT22;4703;48.748;19.142;2023-04-06T02:08:40;2.90;54.40
9329;DHT22;4703;48.748;19.142;2023-04-06T02:11:07;2.60;54.30
9329;DHT22;4703;48.748;19.142;2023-04-06T02:13:34;2.50;54.40
9329;DHT22;4703;48.748;19.142;2023-04-06T02:16:01;2.00;53.60
9329;DHT22;4703;48.748;19.142;2023-04-06T02:18:32;2.80;54.70
9329;DHT22;4703;48.748;19.142;2023-04-06T02:20:59;1.90;54.40
9329;DHT22;4703;48.748;19.142;2023-04-06T02:23:27;3.00;55.50
9329;DHT22;4703;48.748;19.142;2023-04-06T02:25:54;3.30;55.80
9329;DHT22;4703;48.748;19.142;2023-04-06T02:28:21;2.60;55.50
9329;DHT22;4703;48.748;19.142;2023-04-06T02:30:48;2.70;55.60
9329;DHT22;4703;48.748;19.142;2023-04-06T02:33:15;3.00;56.20
9329;DHT22;4703;48.748;19.142;2023-04-06T02:35:44;1.90;55.50
9329;DHT22;4703;48.748;19.142;2023-04-06T02:38:12;1.00;55.00
9329;DHT22;4703;48.748;19.142;2023-04-06T02:40:39;2.80;56.60
9329;DHT22;4703;48.748;19.142;2023-04-06T02:43:06;3.00;57.00
9329;DHT22;4703;48.748;19.142;2023-04-06T02:45:35;2.70;57.10
9329;DHT22;4703;48.748;19.142;2023-04-06T02:48:02;2.50;57.40
9329;DHT22;4703;48.748;19.142;2023-04-06T02:50:30;0.90;56.10
9329;DHT22;4703;48.748;19.142;2023-04-06T02:52:57;3.40;58.30
9329;DHT22;4703;48.748;19.142;2023-04-06T02:55:24;1.90;57.20
9329;DHT22;4703;48.748;19.142;2023-04-06T02:57:51;2.10;57.50
9329;DHT22;4703;48.748;19.142;2023-04-06T03:00:18;0.80;56.70
9329;DHT22;4703;48.748;19.142;2023-04-06T03:02:46;0.80;56.50
9329;DHT22;4703;48.748;19.142;2023-04-06T03:05:13;2.30;59.60
9329;DHT22;4703;48.748;19.142;2023-04-06T03:07:40;0.70;57.50
9329;DHT22;4703;48.748;19.142;2023-04-06T03:10:07;2.50;59.20
9329;DHT22;4703;48.748;19.142;2023-04-06T03:12:36;0.60;57.50
9329;DHT22;4703;48.748;19.142;2023-04-06T03:15:03;3.20;60.00
9329;DHT22;4703;48.748;19.142;2023-04-06T03:17:30;0.50;58.40
9329;DHT22;4703;48.748;19.142;2023-04-06T03:19:57;1.60;59.20
9329;DHT22;4703;48.748;19.142;2023-04-06T03:22:24;2.40;59.90
9329;DHT22;4703;48.748;19.142;2023-04-06T03:24:51;2.10;60.30
9329;DHT22;4703;48.748;19.142;2023-04-06T03:27:18;2.10;60.60
9329;DHT22;4703;48.748;19.142;2023-04-06T03:29:45;0.60;59.40
9329;DHT22;4703;48.748;19.142;2023-04-06T03:32:12;0.60;59.10
9329;DHT22;4703;48.748;19.142;2023-04-06T03:34:39;2.40;62.30
9329;DHT22;4703;48.748;19.142;2023-04-06T03:37:06;2.80;62.00
9329;DHT22;4703;48.748;19.142;2023-04-06T03:39:36;2.60;61.30
9329;DHT22;4703;48.748;19.142;2023-04-06T03:42:03;2.20;60.60
9329;DHT22;4703;48.748;19.142;2023-04-06T03:44:30;0.40;59.90
9329;DHT22;4703;48.748;19.142;2023-04-06T03:46:58;0.50;60.20
9329;DHT22;4703;48.748;19.142;2023-04-06T03:49:25;2.10;61.90
9329;DHT22;4703;48.748;19.142;2023-04-06T03:51:53;1.30;60.40
9329;DHT22;4703;48.748;19.142;2023-04-06T03:54:20;0.60;59.50
9329;DHT22;4703;48.748;19.142;2023-04-06T03:56:47;2.50;60.60
9329;DHT22;4703;48.748;19.142;2023-04-06T03:59:14;2.30;59.70
9329;DHT22;4703;48.748;19.142;2023-04-06T04:01:41;1.50;58.60
9329;DHT22;4703;48.748;19.142;2023-04-06T04:04:09;2.10;58.40
9329;DHT22;4703;48.748;19.142;2023-04-06T04:06:36;1.60;57.60
9329;DHT22;4703;48.748;19.142;2023-04-06T04:09:03;2.20;58.30
9329;DHT22;4703;48.748;19.142;2023-04-06T04:11:30;3.40;59.60
9329;DHT22;4703;48.748;19.142;2023-04-06T04:13:57;2.70;58.80
9329;DHT22;4703;48.748;19.142;2023-04-06T04:16:24;1.70;57.60
9329;DHT22;4703;48.748;19.142;2023-04-06T04:18:51;2.60;58.30
9329;DHT22;4703;48.748;19.142;2023-04-06T04:21:18;1.80;57.50
9329;DHT22;4703;48.748;19.142;2023-04-06T04:23:45;2.40;57.70
9329;DHT22;4703;48.748;19.142;2023-04-06T04:26:13;2.90;58.20
9329;DHT22;4703;48.748;19.142;2023-04-06T04:28:39;3.50;58.30
9329;DHT22;4703;48.748;19.142;2023-04-06T04:31:06;2.30;57.10
9329;DHT22;4703;48.748;19.142;2023-04-06T04:33:33;1.90;57.00
9329;DHT22;4703;48.748;19.142;2023-04-06T04:36:00;2.50;57.50
9329;DHT22;4703;48.748;19.142;2023-04-06T04:38:27;2.80;58.40
9329;DHT22;4703;48.748;19.142;2023-04-06T04:40:54;2.40;58.60
9329;DHT22;4703;48.748;19.142;2023-04-06T04:43:21;2.40;59.40
9329;DHT22;4703;48.748;19.142;2023-04-06T04:45:48;1.00;57.80
9329;DHT22;4703;48.748;19.142;2023-04-06T04:48:15;2.60;58.90
9329;DHT22;4703;48.748;19.142;2023-04-06T04:50:42;1.40;58.20
9329;DHT22;4703;48.748;19.142;2023-04-06T04:53:09;2.70;59.50
9329;DHT22;4703;48.748;19.142;2023-04-06T04:55:39;1.30;58.90
9329;DHT22;4703;48.748;19.142;2023-04-06T04:58:06;2.10;60.00
9329;DHT22;4703;48.748;19.142;2023-04-06T05:00:35;1.60;59.90
9329;DHT22;4703;48.748;19.142;2023-04-06T05:03:04;1.20;58.30
9329;DHT22;4703;48.748;19.142;2023-04-06T05:05:31;2.70;58.90
9329;DHT22;4703;48.748;19.142;2023-04-06T05:07:58;3.40;59.70
9329;DHT22;4703;48.748;19.142;2023-04-06T05:10:25;2.50;58.70
9329;DHT22;4703;48.748;19.142;2023-04-06T05:12:52;3.70;59.60
9329;DHT22;4703;48.748;19.142;2023-04-06T05:15:19;1.90;58.10
9329;DHT22;4703;48.748;19.142;2023-04-06T05:17:47;2.90;58.80
9329;DHT22;4703;48.748;19.142;2023-04-06T05:20:14;3.10;58.60
9329;DHT22;4703;48.748;19.142;2023-04-06T05:22:41;1.40;57.60
9329;DHT22;4703;48.748;19.142;2023-04-06T05:25:08;2.40;58.60
9329;DHT22;4703;48.748;19.142;2023-04-06T05:27:36;1.80;58.00
9329;DHT22;4703;48.748;19.142;2023-04-06T05:30:03;2.70;58.90
9329;DHT22;4703;48.748;19.142;2023-04-06T05:32:30;1.60;58.20
9329;DHT22;4703;48.748;19.142;2023-04-06T05:34:57;3.10;59.40
9329;DHT22;4703;48.748;19.142;2023-04-06T05:37:24;3.50;57.50
9329;DHT22;4703;48.748;19.142;2023-04-06T05:39:51;2.50;56.80
9329;DHT22;4703;48.748;19.142;2023-04-06T05:42:18;1.90;57.10
9329;DHT22;4703;48.748;19.142;2023-04-06T05:44:45;2.60;57.70
9329;DHT22;4703;48.748;19.142;2023-04-06T05:47:12;3.50;58.10
9329;DHT22;4703;48.748;19.142;2023-04-06T05:49:41;3.60;57.60
9329;DHT22;4703;48.748;19.142;2023-04-06T05:52:09;2.60;55.90
9329;DHT22;4703;48.748;19.142;2023-04-06T05:54:36;3.30;56.30
9329;DHT22;4703;48.748;19.142;2023-04-06T05:57:03;2.90;56.30
9329;DHT22;4703;48.748;19.142;2023-04-06T05:59:31;3.30;57.30
9329;DHT22;4703;48.748;19.142;2023-04-06T06:01:58;3.20;56.20
9329;DHT22;4703;48.748;19.142;2023-04-06T06:04:27;4.30;56.20
9329;DHT22;4703;48.748;19.142;2023-04-06T06:06:54;3.50;54.80
9329;DHT22;4703;48.748;19.142;2023-04-06T06:09:21;2.60;54.00
9329;DHT22;4703;48.748;19.142;2023-04-06T06:11:49;2.80;53.90
9329;DHT22;4703;48.748;19.142;2023-04-06T06:14:16;3.10;53.10
9329;DHT22;4703;48.748;19.142;2023-04-06T06:16:43;3.80;53.90
9329;DHT22;4703;48.748;19.142;2023-04-06T06:19:10;3.40;54.50
9329;DHT22;4703;48.748;19.142;2023-04-06T06:21:37;2.90;53.10
9329;DHT22;4703;48.748;19.142;2023-04-06T06:24:05;4.80;54.40
9329;DHT22;4703;48.748;19.142;2023-04-06T06:26:32;3.00;52.40
9329;DHT22;4703;48.748;19.142;2023-04-06T06:28:59;4.20;53.20
9329;DHT22;4703;48.748;19.142;2023-04-06T06:31:26;4.30;53.50
9329;DHT22;4703;48.748;19.142;2023-04-06T06:33:53;3.60;52.20
9329;DHT22;4703;48.748;19.142;2023-04-06T06:36:20;3.20;51.00
9329;DHT22;4703;48.748;19.142;2023-04-06T06:38:47;3.30;51.60
9329;DHT22;4703;48.748;19.142;2023-04-06T06:41:15;5.20;52.30
9329;DHT22;4703;48.748;19.142;2023-04-06T06:43:42;4.70;51.80
9329;DHT22;4703;48.748;19.142;2023-04-06T06:46:09;3.40;52.10
9329;DHT22;4703;48.748;19.142;2023-04-06T06:48:36;3.80;51.10
9329;DHT22;4703;48.748;19.142;2023-04-06T06:51:03;5.00;52.20
9329;DHT22;4703;48.748;19.142;2023-04-06T06:53:30;3.60;50.80
9329;DHT22;4703;48.748;19.142;2023-04-06T06:55:57;3.70;51.30
9329;DHT22;4703;48.748;19.142;2023-04-06T06:58:24;3.80;51.80
9329;DHT22;4703;48.748;19.142;2023-04-06T07:00:56;4.60;51.60
9329;DHT22;4703;48.748;19.142;2023-04-06T07:03:24;3.90;49.30
9329;DHT22;4703;48.748;19.142;2023-04-06T07:05:52;4.10;49.50
9329;DHT22;4703;48.748;19.142;2023-04-06T07:08:23;4.10;50.10
9329;DHT22;4703;48.748;19.142;2023-04-06T07:10:52;4.50;50.00
9329;DHT22;4703;48.748;19.142;2023-04-06T07:13:20;4.30;48.20
9329;DHT22;4703;48.748;19.142;2023-04-06T07:15:51;4.70;48.50
9329;DHT22;4703;48.748;19.142;2023-04-06T07:18:19;4.20;47.90
9329;DHT22;4703;48.748;19.142;2023-04-06T07:20:46;4.20;47.60
9329;DHT22;4703;48.748;19.142;2023-04-06T07:23:13;4.20;48.00
9329;DHT22;4703;48.748;19.142;2023-04-06T07:25:40;4.30;47.40
9329;DHT22;4703;48.748;19.142;2023-04-06T07:28:08;4.30;47.90
9329;DHT22;4703;48.748;19.142;2023-04-06T07:30:37;4.40;48.00
9329;DHT22;4703;48.748;19.142;2023-04-06T07:33:04;5.10;48.10
9329;DHT22;4703;48.748;19.142;2023-04-06T07:35:33;4.60;47.80
9329;DHT22;4703;48.748;19.142;2023-04-06T07:38:01;5.20;48.30
9329;DHT22;4703;48.748;19.142;2023-04-06T07:40:30;4.90;48.40
9329;DHT22;4703;48.748;19.142;2023-04-06T07:42:59;4.90;48.10
9329;DHT22;4703;48.748;19.142;2023-04-06T07:45:26;5.10;46.50
9329;DHT22;4703;48.748;19.142;2023-04-06T07:47:53;5.00;45.60
9329;DHT22;4703;48.748;19.142;2023-04-06T07:50:20;4.90;45.50
9329;DHT22;4703;48.748;19.142;2023-04-06T07:52:47;5.20;46.60
9329;DHT22;4703;48.748;19.142;2023-04-06T07:55:15;5.00;46.30
9329;DHT22;4703;48.748;19.142;2023-04-06T07:57:41;5.10;46.00
9329;DHT22;4703;48.748;19.142;2023-04-06T08:00:09;5.10;46.00
9329;DHT22;4703;48.748;19.142;2023-04-06T08:02:36;5.20;45.80
9329;DHT22;4703;48.748;19.142;2023-04-06T08:05:04;6.00;46.30
9329;DHT22;4703;48.748;19.142;2023-04-06T08:07:32;5.30;45.90
9329;DHT22;4703;48.748;19.142;2023-04-06T08:09:59;5.30;44.70
9329;DHT22;4703;48.748;19.142;2023-04-06T08:12:26;5.20;44.20
9329;DHT22;4703;48.748;19.142;2023-04-06T08:14:53;5.20;44.40
9329;DHT22;4703;48.748;19.142;2023-04-06T08:17:20;5.20;45.00
9329;DHT22;4703;48.748;19.142;2023-04-06T08:19:47;5.20;45.10
9329;DHT22;4703;48.748;19.142;2023-04-06T08:22:14;5.20;45.20
9329;DHT22;4703;48.748;19.142;2023-04-06T08:24:41;5.10;45.20
9329;DHT22;4703;48.748;19.142;2023-04-06T08:27:08;5.30;45.00
9329;DHT22;4703;48.748;19.142;2023-04-06T08:29:35;5.40;44.80
9329;DHT22;4703;48.748;19.142;2023-04-06T08:32:02;5.20;44.20
9329;DHT22;4703;48.748;19.142;2023-04-06T08:34:32;5.30;44.50
9329;DHT22;4703;48.748;19.142;2023-04-06T08:37:00;5.30;45.30
9329;DHT22;4703;48.748;19.142;2023-04-06T08:39:27;5.30;44.90
9329;DHT22;4703;48.748;19.142;2023-04-06T08:41:57;5.40;44.50
9329;DHT22;4703;48.748;19.142;2023-04-06T08:44:26;5.40;45.10
9329;DHT22;4703;48.748;19.142;2023-04-06T08:46:53;5.40;45.30
9329;DHT22;4703;48.748;19.142;2023-04-06T08:49:21;5.50;45.40
9329;DHT22;4703;48.748;19.142;2023-04-06T08:51:49;5.50;45.70
9329;DHT22;4703;48.748;19.142;2023-04-06T08:54:17;5.60;45.90
9329;DHT22;4703;48.748;19.142;2023-04-06T08:56:45;5.70;44.60
9329;DHT22;4703;48.748;19.142;2023-04-06T08:59:13;5.70;45.10
9329;DHT22;4703;48.748;19.142;2023-04-06T09:01:40;5.70;45.20
9329;DHT22;4703;48.748;19.142;2023-04-06T09:04:10;5.80;45.00
9329;DHT22;4703;48.748;19.142;2023-04-06T09:06:39;5.80;45.50
9329;DHT22;4703;48.748;19.142;2023-04-06T09:09:07;5.80;45.50
9329;DHT22;4703;48.748;19.142;2023-04-06T09:11:45;5.80;45.00
9329;DHT22;4703;48.748;19.142;2023-04-06T09:14:14;5.90;45.30
9329;DHT22;4703;48.748;19.142;2023-04-06T09:16:45;5.90;45.40
9329;DHT22;4703;48.748;19.142;2023-04-06T09:19:12;5.80;45.40
9329;DHT22;4703;48.748;19.142;2023-04-06T09:21:39;6.10;45.80
9329;DHT22;4703;48.748;19.142;2023-04-06T09:24:07;5.80;45.60
9329;DHT22;4703;48.748;19.142;2023-04-06T09:26:47;5.90;46.10
9329;DHT22;4703;48.748;19.142;2023-04-06T09:29:24;6.00;45.50
9329;DHT22;4703;48.748;19.142;2023-04-06T09:32:02;6.20;45.60
9329;DHT22;4703;48.748;19.142;2023-04-06T09:34:33;6.20;45.70
9329;DHT22;4703;48.748;19.142;2023-04-06T09:37:00;6.20;45.00
9329;DHT22;4703;48.748;19.142;2023-04-06T09:39:39;6.30;45.40
9329;DHT22;4703;48.748;19.142;2023-04-06T09:42:06;6.30;45.50
9329;DHT22;4703;48.748;19.142;2023-04-06T09:44:33;6.20;45.50
9329;DHT22;4703;48.748;19.142;2023-04-06T09:47:00;6.30;46.00
9329;DHT22;4703;48.748;19.142;2023-04-06T09:49:33;6.20;45.20
9329;DHT22;4703;48.748;19.142;2023-04-06T09:52:06;6.20;45.00
9329;DHT22;4703;48.748;19.142;2023-04-06T09:54:35;6.10;45.60
9329;DHT22;4703;48.748;19.142;2023-04-06T09:57:19;6.20;46.20
9329;DHT22;4703;48.748;19.142;2023-04-06T10:00:06;6.20;45.90
9329;DHT22;4703;48.748;19.142;2023-04-06T10:05:29;6.30;45.20
9329;DHT22;4703;48.748;19.142;2023-04-06T10:08:06;6.40;46.00
9329;DHT22;4703;48.748;19.142;2023-04-06T10:10:37;6.60;46.00
9329;DHT22;4703;48.748;19.142;2023-04-06T10:13:05;6.70;45.90
9329;DHT22;4703;48.748;19.142;2023-04-06T10:15:33;6.80;44.60
9329;DHT22;4703;48.748;19.142;2023-04-06T10:18:00;6.90;44.40
9329;DHT22;4703;48.748;19.142;2023-04-06T10:23:08;7.10;44.70
9329;DHT22;4703;48.748;19.142;2023-04-06T10:25:37;7.20;45.10
9329;DHT22;4703;48.748;19.142;2023-04-06T10:28:09;7.40;45.00
9329;DHT22;4703;48.748;19.142;2023-04-06T10:30:42;7.60;43.60
9329;DHT22;4703;48.748;19.142;2023-04-06T10:33:17;7.70;44.30
9329;DHT22;4703;48.748;19.142;2023-04-06T10:35:46;7.70;44.10
9329;DHT22;4703;48.748;19.142;2023-04-06T10:38:13;7.80;44.10
9329;DHT22;4703;48.748;19.142;2023-04-06T10:40:42;7.90;43.60
9329;DHT22;4703;48.748;19.142;2023-04-06T10:43:19;7.80;44.10
9329;DHT22;4703;48.748;19.142;2023-04-06T10:45:59;7.80;44.50
9329;DHT22;4703;48.748;19.142;2023-04-06T10:51:14;7.80;45.00
9329;DHT22;4703;48.748;19.142;2023-04-06T10:53:43;7.80;45.80
9329;DHT22;4703;48.748;19.142;2023-04-06T10:56:16;7.90;45.80
9329;DHT22;4703;48.748;19.142;2023-04-06T10:58:45;7.90;46.20
9329;DHT22;4703;48.748;19.142;2023-04-06T11:01:16;7.90;46.20
9329;DHT22;4703;48.748;19.142;2023-04-06T11:03:53;7.90;46.50
9329;DHT22;4703;48.748;19.142;2023-04-06T11:06:25;7.90;46.80
9329;DHT22;4703;48.748;19.142;2023-04-06T11:08:56;7.90;47.20
9329;DHT22;4703;48.748;19.142;2023-04-06T11:11:24;7.80;46.80
9329;DHT22;4703;48.748;19.142;2023-04-06T11:13:58;7.90;47.00
9329;DHT22;4703;48.748;19.142;2023-04-06T11:16:34;7.80;46.70
9329;DHT22;4703;48.748;19.142;2023-04-06T11:19:05;7.50;46.80
9329;DHT22;4703;48.748;19.142;2023-04-06T11:21:53;7.30;46.30
9329;DHT22;4703;48.748;19.142;2023-04-06T11:24:24;7.20;47.10
9329;DHT22;4703;48.748;19.142;2023-04-06T11:26:56;7.20;47.00
9329;DHT22;4703;48.748;19.142;2023-04-06T11:29:27;7.10;47.90
9329;DHT22;4703;48.748;19.142;2023-04-06T11:32:00;7.10;48.10
9329;DHT22;4703;48.748;19.142;2023-04-06T11:34:29;6.90;48.30
9329;DHT22;4703;48.748;19.142;2023-04-06T11:36:58;7.70;49.90
9329;DHT22;4703;48.748;19.142;2023-04-06T11:39:27;6.80;50.00
9329;DHT22;4703;48.748;19.142;2023-04-06T11:41:58;6.70;50.20
9329;DHT22;4703;48.748;19.142;2023-04-06T11:44:40;6.60;50.80
9329;DHT22;4703;48.748;19.142;2023-04-06T11:47:13;6.60;51.30
9329;DHT22;4703;48.748;19.142;2023-04-06T11:49:41;6.40;52.00
9329;DHT22;4703;48.748;19.142;2023-04-06T11:52:23;6.30;52.40
9329;DHT22;4703;48.748;19.142;2023-04-06T11:54:53;6.30;53.00
9329;DHT22;4703;48.748;19.142;2023-04-06T11:57:21;6.20;53.30
9329;DHT22;4703;48.748;19.142;2023-04-06T11:59:52;6.00;53.90
9329;DHT22;4703;48.748;19.142;2023-04-06T12:02:19;6.00;55.00
9329;DHT22;4703;48.748;19.142;2023-04-06T12:04:46;5.90;55.50
9329;DHT22;4703;48.748;19.142;2023-04-06T12:07:14;5.70;56.10
9329;DHT22;4703;48.748;19.142;2023-04-06T12:09:42;5.60;56.40
9329;DHT22;4703;48.748;19.142;2023-04-06T12:12:10;5.50;56.90
9329;DHT22;4703;48.748;19.142;2023-04-06T12:14:37;5.30;58.10
9329;DHT22;4703;48.748;19.142;2023-04-06T12:17:04;5.20;59.10
9329;DHT22;4703;48.748;19.142;2023-04-06T12:19:31;4.90;59.10
9329;DHT22;4703;48.748;19.142;2023-04-06T12:21:58;5.70;59.60
9329;DHT22;4703;48.748;19.142;2023-04-06T12:24:26;5.10;59.10
9329;DHT22;4703;48.748;19.142;2023-04-06T12:26:54;5.30;59.60
9329;DHT22;4703;48.748;19.142;2023-04-06T12:29:35;5.00;59.50
9329;DHT22;4703;48.748;19.142;2023-04-06T12:32:02;5.00;59.80
9329;DHT22;4703;48.748;19.142;2023-04-06T12:34:29;4.90;60.30
9329;DHT22;4703;48.748;19.142;2023-04-06T12:36:56;5.10;61.50
9329;DHT22;4703;48.748;19.142;2023-04-06T12:39:24;5.00;61.80
9329;DHT22;4703;48.748;19.142;2023-04-06T12:41:52;4.90;61.80
9329;DHT22;4703;48.748;19.142;2023-04-06T12:44:19;4.80;60.90
9329;DHT22;4703;48.748;19.142;2023-04-06T12:46:46;4.50;61.00
9329;DHT22;4703;48.748;19.142;2023-04-06T12:49:13;4.90;61.40
9329;DHT22;4703;48.748;19.142;2023-04-06T12:51:43;4.90;60.70
9329;DHT22;4703;48.748;19.142;2023-04-06T12:54:10;5.30;60.20
9329;DHT22;4703;48.748;19.142;2023-04-06T12:56:38;5.10;59.80
9329;DHT22;4703;48.748;19.142;2023-04-06T12:59:06;5.00;59.90
9329;DHT22;4703;48.748;19.142;2023-04-06T13:01:33;4.90;59.30
9329;DHT22;4703;48.748;19.142;2023-04-06T13:04:00;5.00;59.60
9329;DHT22;4703;48.748;19.142;2023-04-06T13:06:27;5.20;59.40
9329;DHT22;4703;48.748;19.142;2023-04-06T13:08:55;5.00;59.60
9329;DHT22;4703;48.748;19.142;2023-04-06T13:11:22;4.90;59.30
9329;DHT22;4703;48.748;19.142;2023-04-06T13:13:53;5.60;60.00
9329;DHT22;4703;48.748;19.142;2023-04-06T13:16:20;5.00;60.10
9329;DHT22;4703;48.748;19.142;2023-04-06T13:18:48;4.90;60.00
9329;DHT22;4703;48.748;19.142;2023-04-06T13:21:17;4.80;60.20
9329;DHT22;4703;48.748;19.142;2023-04-06T13:23:46;5.10;60.40
9329;DHT22;4703;48.748;19.142;2023-04-06T13:26:13;4.90;60.50
9329;DHT22;4703;48.748;19.142;2023-04-06T13:28:41;4.80;60.20
9329;DHT22;4703;48.748;19.142;2023-04-06T13:31:09;4.80;60.10
9329;DHT22;4703;48.748;19.142;2023-04-06T13:33:36;4.80;60.50
9329;DHT22;4703;48.748;19.142;2023-04-06T13:36:06;4.80;60.50
9329;DHT22;4703;48.748;19.142;2023-04-06T13:38:34;4.70;60.50
9329;DHT22;4703;48.748;19.142;2023-04-06T13:41:01;5.00;60.70
9329;DHT22;4703;48.748;19.142;2023-04-06T13:43:28;4.90;60.60
9329;DHT22;4703;48.748;19.142;2023-04-06T13:45:56;5.20;60.70
9329;DHT22;4703;48.748;19.142;2023-04-06T13:48:26;5.10;61.20
9329;DHT22;4703;48.748;19.142;2023-04-06T13:50:53;5.20;61.40
9329;DHT22;4703;48.748;19.142;2023-04-06T13:53:20;4.70;61.10
9329;DHT22;4703;48.748;19.142;2023-04-06T13:55:54;4.70;61.50
9329;DHT22;4703;48.748;19.142;2023-04-06T13:58:22;4.70;61.70
9329;DHT22;4703;48.748;19.142;2023-04-06T14:00:49;4.60;61.70
9329;DHT22;4703;48.748;19.142;2023-04-06T14:03:17;4.60;61.80
9329;DHT22;4703;48.748;19.142;2023-04-06T14:05:45;6.40;64.50
9329;DHT22;4703;48.748;19.142;2023-04-06T14:08:12;7.00;65.60
9329;DHT22;4703;48.748;19.142;2023-04-06T14:10:40;7.50;66.70
9329;DHT22;4703;48.748;19.142;2023-04-06T14:13:08;4.50;64.40
9329;DHT22;4703;48.748;19.142;2023-04-06T14:15:36;7.80;68.20
9329;DHT22;4703;48.748;19.142;2023-04-06T14:18:03;4.40;65.00
9329;DHT22;4703;48.748;19.142;2023-04-06T14:20:33;4.50;65.40
9329;DHT22;4703;48.748;19.142;2023-04-06T14:23:01;4.30;65.50
9329;DHT22;4703;48.748;19.142;2023-04-06T14:25:29;4.30;65.60
9329;DHT22;4703;48.748;19.142;2023-04-06T14:28:01;6.20;67.70
9329;DHT22;4703;48.748;19.142;2023-04-06T14:30:30;6.80;68.40
9329;DHT22;4703;48.748;19.142;2023-04-06T14:32:57;4.20;65.90
9329;DHT22;4703;48.748;19.142;2023-04-06T14:35:25;4.30;66.70
9329;DHT22;4703;48.748;19.142;2023-04-06T14:37:55;4.30;67.30
9329;DHT22;4703;48.748;19.142;2023-04-06T14:40:25;4.20;67.70
9329;DHT22;4703;48.748;19.142;2023-04-06T14:42:51;6.20;70.40
9329;DHT22;4703;48.748;19.142;2023-04-06T14:45:18;4.20;68.80
9329;DHT22;4703;48.748;19.142;2023-04-06T14:47:48;4.10;69.80
9329;DHT22;4703;48.748;19.142;2023-04-06T14:50:15;4.10;71.20
9329;DHT22;4703;48.748;19.142;2023-04-06T14:52:42;4.00;73.00
9329;DHT22;4703;48.748;19.142;2023-04-06T14:55:09;6.30;77.60
9329;DHT22;4703;48.748;19.142;2023-04-06T14:57:36;3.90;77.50
9329;DHT22;4703;48.748;19.142;2023-04-06T15:00:03;3.80;79.50
9329;DHT22;4703;48.748;19.142;2023-04-06T15:02:32;3.80;80.90
9329;DHT22;4703;48.748;19.142;2023-04-06T15:04:59;3.70;82.50
9329;DHT22;4703;48.748;19.142;2023-04-06T15:07:27;3.70;82.60
9329;DHT22;4703;48.748;19.142;2023-04-06T15:09:54;3.70;82.90
9329;DHT22;4703;48.748;19.142;2023-04-06T15:12:21;3.70;81.20
9329;DHT22;4703;48.748;19.142;2023-04-06T15:14:48;5.50;82.70
9329;DHT22;4703;48.748;19.142;2023-04-06T15:17:15;3.70;80.10
9329;DHT22;4703;48.748;19.142;2023-04-06T15:19:42;5.90;82.30
9329;DHT22;4703;48.748;19.142;2023-04-06T15:22:09;3.70;79.60
9329;DHT22;4703;48.748;19.142;2023-04-06T15:24:37;3.70;79.10
9329;DHT22;4703;48.748;19.142;2023-04-06T15:27:05;3.80;78.30
9329;DHT22;4703;48.748;19.142;2023-04-06T15:29:32;6.40;80.60
9329;DHT22;4703;48.748;19.142;2023-04-06T15:31:59;3.80;78.00
9329;DHT22;4703;48.748;19.142;2023-04-06T15:34:26;3.90;77.50
9329;DHT22;4703;48.748;19.142;2023-04-06T15:37:00;3.60;76.90
9329;DHT22;4703;48.748;19.142;2023-04-06T15:39:28;3.80;75.20
9329;DHT22;4703;48.748;19.142;2023-04-06T15:41:55;5.50;77.30
9329;DHT22;4703;48.748;19.142;2023-04-06T15:44:23;3.90;75.30
9329;DHT22;4703;48.748;19.142;2023-04-06T15:46:51;6.10;77.10
9329;DHT22;4703;48.748;19.142;2023-04-06T15:49:19;6.00;76.30
9329;DHT22;4703;48.748;19.142;2023-04-06T15:51:47;6.60;77.80
9329;DHT22;4703;48.748;19.142;2023-04-06T15:54:15;4.00;75.20
9329;DHT22;4703;48.748;19.142;2023-04-06T15:56:42;3.90;76.10
9329;DHT22;4703;48.748;19.142;2023-04-06T15:59:09;3.90;76.00
9329;DHT22;4703;48.748;19.142;2023-04-06T16:01:36;3.90;76.10
9329;DHT22;4703;48.748;19.142;2023-04-06T16:04:06;3.90;76.20
9329;DHT22;4703;48.748;19.142;2023-04-06T16:06:34;3.90;76.70
9329;DHT22;4703;48.748;19.142;2023-04-06T16:09:01;3.70;78.10
9329;DHT22;4703;48.748;19.142;2023-04-06T16:11:28;5.60;81.30
9329;DHT22;4703;48.748;19.142;2023-04-06T16:13:55;5.70;80.80
9329;DHT22;4703;48.748;19.142;2023-04-06T16:16:23;3.70;79.20